createdAt,value
2022-09-13T00:02:38.507Z,10.95
2022-09-13T00:07:41.357Z,10.98
2022-09-13T00:12:44.284Z,11.05
2022-09-13T00:17:47.406Z,11.04
2022-09-13T00:22:50.210Z,11.04
2022-09-13T00:27:53.070Z,11.08
2022-09-13T00:32:55.935Z,11.09
2022-09-13T00:38:01.366Z,11.04
2022-09-13T00:43:04.232Z,11.04
2022-09-13T00:48:08.505Z,10.99
2022-09-13T00:53:20.065Z,11.03
2022-09-13T00:58:28.069Z,11.01
2022-09-13T01:03:34.611Z,11.05
2022-09-13T01:08:41.257Z,11.05
2022-09-13T01:13:45.097Z,11.06
2022-09-13T01:18:47.974Z,11.02
2022-09-13T01:24:32.547Z,10.95
2022-09-13T01:30:04.046Z,10.89
2022-09-13T01:35:22.894Z,10.81
2022-09-13T01:41:04.513Z,10.73
2022-09-13T01:46:38.817Z,10.66
2022-09-13T01:52:33.028Z,10.54
2022-09-13T01:57:49.649Z,10.42
2022-09-13T02:03:29.681Z,10.33
2022-09-13T02:08:46.599Z,10.17
2022-09-13T02:14:12.670Z,10.13
2022-09-13T02:19:28.866Z,10.05
2022-09-13T02:24:41.283Z,9.99
2022-09-13T02:29:50.927Z,9.82
2022-09-13T02:35:16.216Z,9.74
2022-09-13T02:40:26.609Z,9.60
2022-09-13T02:45:45.910Z,9.49
2022-09-13T02:51:08.040Z,9.35
2022-09-13T02:56:28.943Z,9.26
2022-09-13T03:01:34.119Z,9.17
2022-09-13T03:06:40.025Z,9.16
2022-09-13T03:12:07.433Z,9.09
2022-09-13T03:17:50.265Z,9.04
2022-09-13T03:23:15.523Z,9.03
2022-09-13T03:29:10.580Z,8.93
2022-09-13T03:34:38.644Z,8.89
2022-09-13T03:39:48.486Z,8.83
2022-09-13T03:44:54.294Z,8.80
2022-09-13T03:49:58.038Z,8.79
2022-09-13T03:55:01.394Z,8.71
2022-09-13T04:00:05.127Z,8.65
2022-09-13T04:05:08.377Z,8.57
2022-09-13T04:10:13.865Z,8.55
2022-09-13T04:15:17.086Z,8.50
2022-09-13T04:20:20.997Z,8.49
2022-09-13T04:25:24.691Z,8.48
2022-09-13T04:30:28.549Z,8.52
2022-09-13T04:35:31.492Z,8.55
2022-09-13T04:40:35.160Z,8.58
2022-09-13T04:45:38.160Z,8.63
2022-09-13T04:50:41.138Z,8.62
2022-09-13T04:55:43.892Z,8.75
2022-09-13T05:00:47.791Z,8.92
2022-09-13T05:05:50.617Z,9.08
2022-09-13T05:10:53.377Z,9.20
2022-09-13T05:16:03.196Z,9.32
2022-09-13T05:21:06.148Z,9.39
2022-09-13T05:26:09.254Z,9.53
2022-09-13T05:31:28.461Z,9.62
2022-09-13T05:36:31.745Z,9.74
2022-09-13T05:41:34.633Z,9.85
2022-09-13T05:46:37.464Z,10.04
2022-09-13T05:51:40.958Z,10.26
2022-09-13T05:56:44.249Z,10.40
2022-09-13T06:01:48.409Z,10.57
2022-09-13T06:06:51.219Z,10.69
2022-09-13T06:11:53.990Z,10.80
2022-09-13T06:16:56.842Z,11.07
2022-09-13T06:21:59.562Z,11.29
2022-09-13T06:27:02.295Z,11.51
2022-09-13T06:32:05.326Z,11.80
2022-09-13T06:37:08.404Z,12.04
2022-09-13T06:42:11.177Z,12.28
2022-09-13T06:47:14.251Z,12.57
2022-09-13T06:52:17.076Z,12.84
2022-09-13T06:57:20.073Z,13.12
2022-09-13T07:02:24.607Z,13.44
2022-09-13T07:07:27.426Z,13.69
2022-09-13T07:12:30.166Z,13.98
2022-09-13T07:17:32.961Z,14.22
2022-09-13T07:22:35.700Z,14.46
2022-09-13T07:27:38.431Z,14.72
2022-09-13T07:32:42.570Z,15.00
2022-09-13T07:37:46.736Z,15.25
2022-09-13T07:42:49.649Z,15.51
2022-09-13T07:47:54.203Z,15.82
2022-09-13T07:52:56.935Z,16.09
2022-09-13T07:58:00.523Z,16.31
2022-09-13T08:03:03.560Z,16.50
2022-09-13T08:08:07.372Z,16.76
2022-09-13T08:13:10.388Z,16.95
2022-09-13T08:18:13.239Z,17.18
2022-09-13T08:23:16.132Z,17.49
2022-09-13T08:28:27.686Z,17.85
2022-09-13T08:33:31.018Z,18.23
2022-09-13T08:38:33.874Z,18.58
2022-09-13T08:44:13.136Z,18.90
2022-09-13T08:49:23.159Z,19.13
2022-09-13T08:54:26.637Z,19.47
2022-09-13T09:00:21.141Z,19.66
2022-09-13T09:05:26.973Z,19.82
2022-09-13T09:10:36.345Z,20.01
2022-09-13T09:16:30.855Z,19.97
2022-09-13T09:21:34.161Z,20.14
2022-09-13T09:26:37.767Z,20.42
2022-09-13T09:31:47.343Z,20.66
2022-09-13T09:37:10.196Z,20.90
2022-09-13T09:42:25.623Z,21.03
2022-09-13T09:47:34.025Z,21.18
2022-09-13T09:53:24.466Z,21.43
2022-09-13T09:58:36.988Z,21.73
2022-09-13T10:03:40.610Z,21.75
2022-09-13T10:08:48.470Z,21.73
2022-09-13T10:14:04.145Z,21.77
2022-09-13T10:19:38.432Z,21.77
2022-09-13T10:24:41.290Z,21.69
2022-09-13T10:29:50.554Z,21.81
2022-09-13T10:34:54.963Z,21.88
2022-09-13T10:40:13.589Z,22.26
2022-09-13T10:45:24.920Z,22.27
2022-09-13T10:50:31.556Z,22.56
2022-09-13T10:55:40.990Z,22.85
2022-09-13T11:01:02.257Z,23.51
2022-09-13T11:06:34.375Z,23.92
2022-09-13T11:12:14.693Z,24.29
2022-09-13T11:17:38.571Z,24.88
2022-09-13T11:23:24.491Z,25.17
2022-09-13T11:29:08.731Z,25.40
2022-09-13T11:34:38.982Z,25.40
2022-09-13T11:40:16.727Z,24.97
2022-09-13T11:45:28.715Z,24.63
2022-09-13T11:51:16.128Z,24.48
2022-09-13T11:56:34.558Z,24.25
2022-09-13T12:01:45.629Z,24.01
2022-09-13T12:07:04.568Z,23.73
2022-09-13T12:12:14.673Z,23.51
2022-09-13T12:17:30.604Z,23.46
2022-09-13T12:22:36.919Z,23.30
2022-09-13T12:28:11.257Z,23.10
2022-09-13T12:33:16.469Z,23.02
2022-09-13T12:38:48.057Z,22.76
2022-09-13T12:44:21.491Z,22.61
2022-09-13T12:49:54.256Z,22.52
2022-09-13T12:55:35.637Z,22.48
2022-09-13T13:01:00.602Z,22.39
2022-09-13T13:06:38.590Z,22.35
2022-09-13T13:11:47.525Z,22.16
2022-09-13T13:16:50.366Z,22.11
2022-09-13T13:21:54.376Z,22.14
2022-09-13T13:26:59.418Z,22.22
2022-09-13T13:32:04.983Z,22.29
2022-09-13T13:37:10.784Z,22.36
2022-09-13T13:42:28.250Z,22.51
2022-09-13T13:47:31.503Z,22.55
2022-09-13T13:52:48.831Z,22.49
2022-09-13T13:58:12.753Z,22.54
2022-09-13T14:03:24.090Z,22.60
2022-09-13T14:08:52.940Z,22.67
2022-09-13T14:14:18.745Z,22.74
2022-09-13T14:19:24.374Z,22.75
2022-09-13T14:24:27.308Z,22.75
2022-09-13T14:29:30.460Z,22.79
2022-09-13T14:34:38.713Z,22.90
2022-09-13T14:39:59.607Z,23.01
2022-09-13T14:45:03.646Z,23.07
2022-09-13T14:50:56.177Z,23.18
2022-09-13T14:56:14.287Z,23.22
2022-09-13T15:01:22.793Z,23.31
2022-09-13T15:06:30.102Z,23.44
2022-09-13T15:11:36.602Z,23.57
2022-09-13T15:16:55.264Z,23.61
2022-09-13T15:22:20.441Z,23.42
2022-09-13T15:27:43.500Z,23.07
2022-09-13T15:32:46.341Z,22.74
2022-09-13T15:38:22.257Z,22.49
2022-09-13T15:43:25.342Z,22.26
2022-09-13T15:48:34.655Z,22.04
2022-09-13T15:53:40.260Z,21.87
2022-09-13T15:58:43.170Z,21.69
2022-09-13T16:03:46.603Z,21.53
2022-09-13T16:08:49.431Z,21.34
2022-09-13T16:13:52.224Z,21.14
2022-09-13T16:18:54.920Z,20.98
2022-09-13T16:23:57.757Z,20.87
2022-09-13T16:29:00.605Z,20.73
2022-09-13T16:34:03.712Z,20.53
2022-09-13T16:39:06.441Z,20.32
2022-09-13T16:44:09.315Z,20.14
2022-09-13T16:49:12.317Z,19.98
2022-09-13T16:54:15.144Z,19.79
2022-09-13T16:59:17.950Z,19.59
2022-09-13T17:04:20.982Z,19.40
2022-09-13T17:09:27.582Z,19.21
2022-09-13T17:14:30.403Z,19.03
2022-09-13T17:19:33.766Z,18.85
2022-09-13T17:24:37.820Z,18.68
2022-09-13T17:29:40.542Z,18.47
2022-09-13T17:34:43.254Z,18.32
2022-09-13T17:39:47.106Z,18.18
2022-09-13T17:44:49.926Z,18.11
2022-09-13T17:49:52.863Z,18.03
2022-09-13T17:54:55.641Z,17.92
2022-09-13T17:59:58.339Z,17.83
2022-09-13T18:05:05.880Z,17.74
2022-09-13T18:10:32.321Z,17.67
2022-09-13T18:15:34.485Z,17.64
2022-09-13T18:20:40.493Z,17.63
2022-09-13T18:25:43.498Z,17.61
2022-09-13T18:30:56.288Z,17.58
2022-09-13T18:36:05.992Z,17.57
2022-09-13T18:41:14.955Z,17.53
2022-09-13T18:46:23.883Z,17.47
2022-09-13T18:51:31.323Z,17.43
2022-09-13T18:56:35.958Z,17.37
2022-09-13T19:01:42.433Z,17.33
2022-09-13T19:06:52.496Z,17.29
2022-09-13T19:11:55.373Z,17.26
2022-09-13T19:17:04.619Z,17.21
2022-09-13T19:22:07.450Z,17.20
2022-09-13T19:27:10.203Z,17.20
2022-09-13T19:32:12.935Z,17.23
2022-09-13T19:37:16.152Z,17.21
2022-09-13T19:42:19.018Z,17.18
2022-09-13T19:48:12.958Z,17.18
2022-09-13T19:52:45.744Z,17.19
2022-09-13T19:57:48.490Z,17.17
2022-09-13T20:02:52.161Z,17.16
2022-09-13T20:07:55.743Z,17.14
2022-09-13T20:12:59.072Z,17.14
2022-09-13T20:18:01.772Z,17.15
2022-09-13T20:23:04.599Z,17.12
2022-09-13T20:28:07.391Z,17.12
2022-09-13T20:33:10.314Z,17.10
2022-09-13T20:38:13.245Z,17.07
2022-09-13T20:43:16.276Z,17.05
2022-09-13T20:48:19.819Z,17.01
2022-09-13T20:53:22.592Z,16.98
2022-09-13T20:58:25.504Z,16.97
2022-09-13T21:03:28.447Z,16.94
2022-09-13T21:08:43.368Z,16.89
2022-09-13T21:13:53.651Z,16.84
2022-09-13T21:18:57.386Z,16.79
2022-09-13T21:24:02.203Z,16.73
2022-09-13T21:29:05.319Z,16.66
2022-09-13T21:34:15.912Z,16.62
2022-09-13T21:39:19.234Z,16.59
2022-09-13T21:44:22.047Z,16.54
2022-09-13T21:49:24.867Z,16.47
2022-09-13T21:54:27.611Z,16.43
2022-09-13T21:59:30.344Z,16.40
2022-09-13T22:04:34.383Z,16.31
2022-09-13T22:09:37.818Z,16.32
2022-09-13T22:14:40.530Z,16.30
2022-09-13T22:19:43.400Z,16.29
2022-09-13T22:24:46.634Z,16.25
2022-09-13T22:29:49.473Z,16.19
2022-09-13T22:34:52.247Z,16.09
2022-09-13T22:39:56.059Z,16.00
2022-09-13T22:44:59.033Z,15.82
2022-09-13T22:50:01.800Z,15.70
2022-09-13T22:55:05.138Z,15.61
2022-09-13T23:00:08.909Z,15.47
2022-09-13T23:05:12.134Z,15.34
2022-09-13T23:10:14.935Z,15.27
2022-09-13T23:15:19.914Z,15.16
2022-09-13T23:20:22.690Z,15.09
2022-09-13T23:25:25.430Z,15.01
2022-09-13T23:30:28.221Z,14.92
2022-09-13T23:35:30.890Z,14.82
2022-09-13T23:40:35.791Z,14.75
2022-09-13T23:45:38.566Z,14.67
2022-09-13T23:50:41.400Z,14.58
2022-09-13T23:55:44.136Z,14.49
